createdAt,value
2019-05-19T00:02:26.526Z,86.50
2019-05-19T00:04:55.425Z,86.40
2019-05-19T00:07:24.315Z,86.60
2019-05-19T00:09:53.158Z,86.80
2019-05-19T00:12:22.087Z,86.60
2019-05-19T00:14:50.939Z,86.80
2019-05-19T00:17:19.768Z,87.10
2019-05-19T00:19:48.683Z,87.20
2019-05-19T00:22:17.527Z,87.20
2019-05-19T00:24:46.370Z,87.40
2019-05-19T00:27:15.376Z,87.20
2019-05-19T00:29:44.295Z,87.40
2019-05-19T00:32:13.058Z,87.60
2019-05-19T00:34:41.941Z,87.80
2019-05-19T00:37:10.816Z,88.20
2019-05-19T00:39:39.643Z,88.00
2019-05-19T00:42:08.622Z,88.20
2019-05-19T00:44:37.458Z,88.80
2019-05-19T00:47:06.252Z,89.10
2019-05-19T00:49:41.354Z,89.30
2019-05-19T00:52:06.318Z,89.80
2019-05-19T00:54:35.152Z,90.00
2019-05-19T00:57:04.765Z,90.00
2019-05-19T00:59:34.400Z,90.10
2019-05-19T01:02:03.238Z,89.90
2019-05-19T01:04:32.121Z,90.00
2019-05-19T01:07:01.012Z,89.90
2019-05-19T01:09:29.885Z,90.00
2019-05-19T01:11:59.097Z,90.00
2019-05-19T01:14:27.973Z,90.00
2019-05-19T01:16:56.841Z,90.10
2019-05-19T01:19:25.796Z,90.10
2019-05-19T01:21:55.858Z,90.30
2019-05-19T01:24:24.756Z,90.40
2019-05-19T01:26:53.682Z,90.30
2019-05-19T01:29:22.581Z,90.30
2019-05-19T01:31:51.491Z,90.20
2019-05-19T01:34:20.295Z,90.10
2019-05-19T01:36:49.201Z,90.20
2019-05-19T01:39:18.097Z,90.30
2019-05-19T01:41:46.985Z,90.30
2019-05-19T01:44:15.869Z,90.20
2019-05-19T01:46:44.619Z,90.30
2019-05-19T01:49:13.562Z,90.30
2019-05-19T01:51:42.414Z,90.30
2019-05-19T01:54:11.268Z,90.30
2019-05-19T01:56:40.161Z,90.30
2019-05-19T01:59:09.023Z,90.40
2019-05-19T02:01:37.903Z,90.40
2019-05-19T02:04:06.817Z,90.80
2019-05-19T02:06:35.666Z,90.80
2019-05-19T02:09:06.444Z,90.80
2019-05-19T02:11:35.394Z,90.90
2019-05-19T02:14:04.616Z,90.80
2019-05-19T02:16:33.524Z,90.90
2019-05-19T02:19:02.610Z,90.90
2019-05-19T02:21:31.631Z,91.10
2019-05-19T02:24:00.487Z,91.40
2019-05-19T02:26:29.383Z,91.00
2019-05-19T02:28:58.217Z,90.90
2019-05-19T02:31:27.015Z,90.80
2019-05-19T02:33:55.945Z,91.00
2019-05-19T02:36:24.802Z,91.20
2019-05-19T02:38:53.641Z,91.20
2019-05-19T02:41:22.826Z,91.20
2019-05-19T02:43:53.162Z,91.40
2019-05-19T02:46:22.825Z,91.40
2019-05-19T02:48:52.727Z,91.30
2019-05-19T02:51:22.760Z,91.30
2019-05-19T02:53:52.136Z,91.20
2019-05-19T02:56:22.330Z,91.20
2019-05-19T02:58:52.696Z,91.20
2019-05-19T03:01:21.551Z,91.10
2019-05-19T03:03:50.396Z,91.10
2019-05-19T03:06:19.217Z,91.40
2019-05-19T03:08:47.980Z,91.50
2019-05-19T03:11:16.880Z,91.50
2019-05-19T03:13:45.732Z,91.50
2019-05-19T03:16:14.598Z,92.00
2019-05-19T03:18:44.279Z,91.70
2019-05-19T03:21:13.115Z,91.60
2019-05-19T03:23:41.982Z,91.60
2019-05-19T03:26:10.915Z,91.60
2019-05-19T03:28:39.774Z,91.60
2019-05-19T03:31:28.708Z,91.50
2019-05-19T03:33:58.640Z,91.50
2019-05-19T03:36:27.490Z,91.50
2019-05-19T03:38:56.377Z,91.50
2019-05-19T03:41:25.229Z,91.60
2019-05-19T03:43:54.058Z,91.70
2019-05-19T03:46:22.984Z,91.80
2019-05-19T03:48:51.796Z,91.90
2019-05-19T03:51:30.657Z,91.90
2019-05-19T03:53:51.014Z,91.90
2019-05-19T03:56:19.834Z,91.90
2019-05-19T03:58:48.695Z,92.00
2019-05-19T04:01:17.697Z,92.10
2019-05-19T04:03:46.470Z,92.10
2019-05-19T04:06:15.305Z,92.30
2019-05-19T04:08:44.184Z,92.40
2019-05-19T04:11:13.033Z,92.50
2019-05-19T04:13:41.909Z,92.40
2019-05-19T04:16:10.797Z,92.20
2019-05-19T04:18:39.649Z,92.20
2019-05-19T04:21:08.410Z,92.10
2019-05-19T04:23:37.302Z,92.10
2019-05-19T04:26:06.145Z,92.00
2019-05-19T04:28:34.997Z,90.80
2019-05-19T04:31:03.926Z,90.00
2019-05-19T04:33:32.714Z,89.10
2019-05-19T04:36:01.586Z,88.20
2019-05-19T04:38:30.418Z,87.50
2019-05-19T04:40:59.255Z,87.80
2019-05-19T04:43:28.190Z,88.30
2019-05-19T04:45:57.101Z,88.90
2019-05-19T04:48:25.955Z,89.60
2019-05-19T04:50:54.780Z,90.00
2019-05-19T04:53:23.658Z,90.20
2019-05-19T04:55:52.519Z,90.50
2019-05-19T04:58:21.377Z,90.60
2019-05-19T05:00:50.382Z,90.90
2019-05-19T05:03:19.123Z,91.10
2019-05-19T05:05:47.944Z,91.10
2019-05-19T05:08:28.587Z,91.10
2019-05-19T05:10:47.366Z,91.20
2019-05-19T05:13:16.098Z,91.20
2019-05-19T05:15:44.982Z,90.90
2019-05-19T05:18:13.803Z,90.50
2019-05-19T05:20:42.631Z,90.60
2019-05-19T05:23:11.502Z,90.70
2019-05-19T05:25:40.276Z,90.50
2019-05-19T05:28:09.118Z,87.80
2019-05-19T05:30:38.029Z,84.40
2019-05-19T05:33:06.917Z,82.40
2019-05-19T05:35:35.786Z,80.10
2019-05-19T05:38:04.611Z,76.80
2019-05-19T05:40:33.375Z,73.60
2019-05-19T05:43:02.231Z,70.50
2019-05-19T05:45:31.184Z,69.40
2019-05-19T05:48:00.058Z,69.70
2019-05-19T05:50:28.981Z,69.70
2019-05-19T05:52:57.897Z,70.00
2019-05-19T05:55:26.733Z,72.20
2019-05-19T05:57:56.823Z,70.80
2019-05-19T06:00:28.678Z,72.40
2019-05-19T06:02:58.112Z,72.50
2019-05-19T06:05:26.938Z,72.80
2019-05-19T06:07:55.862Z,74.40
2019-05-19T06:10:24.648Z,75.10
2019-05-19T06:12:53.501Z,76.20
2019-05-19T06:15:22.397Z,76.30
2019-05-19T06:17:54.192Z,76.40
2019-05-19T06:20:22.928Z,76.50
2019-05-19T06:22:56.890Z,77.40
2019-05-19T06:25:23.126Z,79.60
2019-05-19T06:27:51.958Z,78.60
2019-05-19T06:30:20.881Z,80.30
2019-05-19T06:32:51.290Z,77.60
2019-05-19T06:35:20.228Z,78.00
2019-05-19T06:37:49.161Z,78.10
2019-05-19T06:40:18.307Z,77.20
2019-05-19T06:42:47.178Z,75.10
2019-05-19T06:45:16.564Z,74.20
2019-05-19T06:47:45.385Z,76.50
2019-05-19T06:50:14.733Z,77.20
2019-05-19T06:52:43.569Z,75.10
2019-05-19T06:55:13.301Z,75.80
2019-05-19T06:57:42.109Z,75.50
2019-05-19T07:00:11.296Z,75.90
2019-05-19T07:02:40.160Z,75.30
2019-05-19T07:05:09.620Z,75.10
2019-05-19T07:07:38.522Z,76.80
2019-05-19T07:10:08.241Z,76.10
2019-05-19T07:12:37.054Z,74.20
2019-05-19T07:15:07.106Z,69.90
2019-05-19T07:17:35.885Z,69.10
2019-05-19T07:20:05.618Z,70.10
2019-05-19T07:22:37.446Z,72.30
2019-05-19T07:25:06.843Z,70.50
2019-05-19T07:27:35.695Z,73.00
2019-05-19T07:30:06.007Z,70.20
2019-05-19T07:32:34.860Z,70.20
2019-05-19T07:35:04.195Z,71.50
2019-05-19T07:37:33.124Z,70.90
2019-05-19T07:40:01.960Z,67.80
2019-05-19T07:42:30.812Z,67.80
2019-05-19T07:44:59.606Z,68.20
2019-05-19T07:47:28.535Z,70.90
2019-05-19T07:49:57.369Z,70.30
2019-05-19T07:52:26.237Z,68.80
2019-05-19T07:54:55.086Z,69.30
2019-05-19T07:57:23.941Z,70.80
2019-05-19T07:59:52.751Z,70.30
2019-05-19T08:02:21.611Z,71.00
2019-05-19T08:04:50.425Z,66.70
2019-05-19T08:07:19.373Z,66.80
2019-05-19T08:09:48.224Z,66.60
2019-05-19T08:12:17.045Z,65.10
2019-05-19T08:14:45.929Z,65.30
2019-05-19T08:17:14.795Z,65.10
2019-05-19T08:19:43.584Z,63.70
2019-05-19T08:22:12.488Z,64.00
2019-05-19T08:24:41.225Z,64.10
2019-05-19T08:27:10.098Z,63.30
2019-05-19T08:29:38.990Z,63.30
2019-05-19T08:32:07.836Z,62.60
2019-05-19T08:34:36.665Z,61.20
2019-05-19T08:37:05.549Z,62.30
2019-05-19T08:39:34.386Z,60.10
2019-05-19T08:42:03.175Z,60.90
2019-05-19T08:44:32.046Z,60.60
2019-05-19T08:47:00.808Z,60.60
2019-05-19T08:49:29.915Z,58.50
2019-05-19T08:51:58.764Z,58.40
2019-05-19T08:54:27.618Z,57.10
2019-05-19T08:56:56.506Z,55.90
2019-05-19T08:59:25.304Z,56.10
2019-05-19T09:01:54.125Z,56.60
2019-05-19T09:04:22.955Z,55.00
2019-05-19T09:06:51.828Z,55.50
2019-05-19T09:09:20.717Z,53.40
2019-05-19T09:11:49.601Z,55.50
2019-05-19T09:14:18.438Z,54.20
2019-05-19T09:16:47.294Z,53.00
2019-05-19T09:19:16.124Z,51.10
2019-05-19T09:21:45.040Z,50.40
2019-05-19T09:24:13.822Z,51.00
2019-05-19T09:26:42.727Z,49.50
2019-05-19T09:29:11.540Z,51.10
2019-05-19T09:31:41.565Z,50.70
2019-05-19T09:34:10.749Z,50.20
2019-05-19T09:36:39.667Z,51.20
2019-05-19T09:39:08.429Z,48.60
2019-05-19T09:41:37.242Z,49.60
2019-05-19T09:44:06.055Z,47.00
2019-05-19T09:46:34.900Z,47.30
2019-05-19T09:49:21.442Z,47.00
2019-05-19T09:51:50.294Z,47.00
2019-05-19T09:54:19.534Z,48.20
2019-05-19T09:56:48.464Z,48.60
2019-05-19T09:59:17.226Z,47.40
2019-05-19T10:01:46.075Z,43.80
2019-05-19T10:04:14.864Z,43.80
2019-05-19T10:06:43.841Z,44.90
2019-05-19T10:09:19.200Z,45.50
2019-05-19T10:11:51.384Z,45.90
2019-05-19T10:14:20.179Z,44.40
2019-05-19T10:16:49.656Z,44.70
2019-05-19T10:19:18.587Z,43.70
2019-05-19T10:21:47.513Z,43.00
2019-05-19T10:24:16.355Z,42.90
2019-05-19T10:26:45.199Z,41.40
2019-05-19T10:29:14.177Z,42.00
2019-05-19T10:31:43.057Z,43.40
2019-05-19T10:34:11.796Z,42.20
2019-05-19T10:36:40.623Z,41.70
2019-05-19T10:39:09.555Z,40.70
2019-05-19T10:41:38.384Z,42.40
2019-05-19T10:44:07.206Z,43.10
2019-05-19T10:46:36.177Z,45.60
2019-05-19T10:49:04.934Z,42.30
2019-05-19T10:51:33.701Z,42.60
2019-05-19T10:54:02.599Z,43.40
2019-05-19T10:56:31.475Z,41.60
2019-05-19T10:59:00.294Z,41.30
2019-05-19T11:01:29.198Z,43.10
2019-05-19T11:03:58.056Z,44.20
2019-05-19T11:06:26.816Z,44.80
2019-05-19T11:08:55.694Z,44.10
2019-05-19T11:11:24.520Z,42.70
2019-05-19T11:13:53.298Z,42.40
2019-05-19T11:16:22.246Z,43.10
2019-05-19T11:18:51.137Z,42.40
2019-05-19T11:21:20.001Z,41.60
2019-05-19T11:23:48.984Z,42.20
2019-05-19T11:26:17.769Z,42.70
2019-05-19T11:28:46.520Z,41.80
2019-05-19T11:31:15.417Z,42.50
2019-05-19T11:33:44.237Z,42.20
2019-05-19T11:36:13.050Z,44.00
2019-05-19T11:38:41.897Z,44.40
2019-05-19T11:41:10.709Z,44.50
2019-05-19T11:43:39.591Z,43.30
2019-05-19T11:46:08.469Z,41.70
2019-05-19T11:48:37.215Z,41.90
2019-05-19T11:51:06.081Z,43.50
2019-05-19T11:53:35.006Z,42.90
2019-05-19T11:56:07.121Z,44.60
2019-05-19T11:58:34.190Z,45.20
2019-05-19T12:01:03.100Z,45.10
2019-05-19T12:03:31.943Z,47.00
2019-05-19T12:06:00.795Z,46.30
2019-05-19T12:08:31.156Z,47.00
2019-05-19T12:10:59.951Z,48.30
2019-05-19T12:13:28.746Z,47.20
2019-05-19T12:15:58.344Z,49.50
2019-05-19T12:18:27.170Z,49.60
2019-05-19T12:20:56.039Z,47.40
2019-05-19T12:23:24.853Z,45.30
2019-05-19T12:25:53.709Z,46.00
2019-05-19T12:28:22.594Z,46.30
2019-05-19T12:30:51.423Z,47.70
2019-05-19T12:33:20.320Z,45.60
2019-05-19T12:35:49.164Z,47.20
2019-05-19T12:38:19.261Z,43.30
2019-05-19T12:40:48.101Z,42.30
2019-05-19T12:43:16.897Z,44.60
2019-05-19T12:45:45.842Z,40.90
2019-05-19T12:48:14.676Z,43.30
2019-05-19T12:50:43.548Z,42.70
2019-05-19T12:53:12.425Z,46.20
2019-05-19T12:55:41.277Z,45.50
2019-05-19T12:58:10.049Z,47.00
2019-05-19T13:00:39.012Z,45.60
2019-05-19T13:03:07.835Z,44.60
2019-05-19T13:05:36.724Z,45.60
2019-05-19T13:08:05.568Z,46.60
2019-05-19T13:10:42.404Z,42.90
2019-05-19T13:13:11.584Z,42.70
2019-05-19T13:15:40.529Z,43.50
2019-05-19T13:18:09.347Z,41.70
2019-05-19T13:20:38.267Z,45.10
2019-05-19T13:23:07.049Z,45.00
2019-05-19T13:25:36.065Z,44.90
2019-05-19T13:28:05.520Z,46.80
2019-05-19T13:30:34.457Z,45.90
2019-05-19T13:33:03.513Z,46.40
2019-05-19T13:35:32.440Z,43.10
2019-05-19T13:38:01.289Z,44.70
2019-05-19T13:40:31.678Z,43.40
2019-05-19T13:43:01.995Z,43.60
2019-05-19T13:45:40.341Z,44.70
2019-05-19T13:48:14.559Z,46.00
2019-05-19T13:50:45.876Z,47.10
2019-05-19T13:53:14.648Z,45.80
2019-05-19T13:55:43.514Z,45.30
2019-05-19T13:58:12.391Z,47.00
2019-05-19T14:00:41.180Z,47.00
2019-05-19T14:03:10.085Z,45.90
2019-05-19T14:05:38.962Z,46.80
2019-05-19T14:08:09.254Z,46.30
2019-05-19T14:10:38.164Z,49.30
2019-05-19T14:13:06.910Z,47.80
2019-05-19T14:15:35.712Z,46.20
2019-05-19T14:18:04.509Z,46.10
2019-05-19T14:20:33.288Z,46.70
2019-05-19T14:23:02.116Z,44.80
2019-05-19T14:25:39.111Z,46.10
2019-05-19T14:28:07.880Z,47.40
2019-05-19T14:30:36.719Z,43.80
2019-05-19T14:33:07.689Z,43.70
2019-05-19T14:35:36.516Z,46.80
2019-05-19T14:38:05.370Z,45.90
2019-05-19T14:40:34.182Z,44.40
2019-05-19T14:43:04.142Z,46.10
2019-05-19T14:45:33.152Z,45.20
2019-05-19T14:48:02.027Z,45.60
2019-05-19T14:50:30.842Z,47.60
2019-05-19T14:52:59.649Z,49.20
2019-05-19T14:55:28.545Z,49.30
2019-05-19T14:57:57.351Z,50.30
2019-05-19T15:00:26.132Z,52.50
2019-05-19T15:02:54.929Z,55.50
2019-05-19T15:05:23.668Z,57.20
2019-05-19T15:07:52.457Z,58.60
2019-05-19T15:10:21.483Z,59.90
2019-05-19T15:12:50.221Z,58.70
2019-05-19T15:15:19.482Z,59.50
2019-05-19T15:17:48.337Z,58.90
2019-05-19T15:20:17.308Z,58.20
2019-05-19T15:22:46.126Z,58.70
2019-05-19T15:25:15.369Z,56.50
2019-05-19T15:27:57.824Z,57.70
2019-05-19T15:30:14.896Z,58.00
2019-05-19T15:32:43.781Z,57.70
2019-05-19T15:35:13.578Z,58.10
2019-05-19T15:37:42.436Z,57.30
2019-05-19T15:40:11.430Z,56.90
2019-05-19T15:42:40.268Z,56.60
2019-05-19T15:45:10.231Z,56.00
2019-05-19T15:47:39.089Z,55.50
2019-05-19T15:50:09.579Z,54.20
2019-05-19T15:52:38.427Z,54.10
2019-05-19T15:55:07.234Z,55.00
2019-05-19T15:57:35.968Z,54.10
2019-05-19T16:00:07.290Z,53.40
2019-05-19T16:02:36.269Z,52.70
2019-05-19T16:05:07.862Z,53.90
2019-05-19T16:07:36.624Z,53.30
2019-05-19T16:10:09.076Z,53.80
2019-05-19T16:12:37.900Z,53.50
2019-05-19T16:15:07.747Z,53.10
2019-05-19T16:17:36.719Z,51.90
2019-05-19T16:20:09.284Z,49.70
2019-05-19T16:22:38.103Z,49.90
2019-05-19T16:25:07.635Z,50.20
2019-05-19T16:27:36.395Z,52.00
2019-05-19T16:30:07.205Z,52.30
2019-05-19T16:32:36.039Z,53.80
2019-05-19T16:35:06.787Z,55.10
2019-05-19T16:37:35.729Z,58.00
2019-05-19T16:40:05.365Z,58.50
2019-05-19T16:42:34.145Z,59.40
2019-05-19T16:45:02.990Z,59.30
2019-05-19T16:47:32.060Z,60.50
2019-05-19T16:50:00.815Z,61.30
2019-05-19T16:52:30.026Z,61.50
2019-05-19T16:55:16.991Z,61.60
2019-05-19T16:57:52.410Z,61.70
2019-05-19T17:00:21.896Z,62.30
2019-05-19T17:02:50.738Z,62.50
2019-05-19T17:05:19.561Z,62.80
2019-05-19T17:07:48.493Z,63.30
2019-05-19T17:10:18.914Z,63.30
2019-05-19T17:12:47.675Z,64.10
2019-05-19T17:15:16.877Z,64.30
2019-05-19T17:17:45.650Z,64.70
2019-05-19T17:20:15.123Z,64.00
2019-05-19T17:22:43.947Z,64.40
2019-05-19T17:25:12.996Z,64.30
2019-05-19T17:27:42.120Z,63.80
2019-05-19T17:30:18.515Z,63.80
2019-05-19T17:32:47.651Z,62.90
2019-05-19T17:35:16.855Z,62.30
2019-05-19T17:37:45.692Z,61.50
2019-05-19T17:40:14.974Z,61.80
2019-05-19T17:42:43.809Z,62.20
2019-05-19T17:45:12.909Z,62.30
2019-05-19T17:47:41.768Z,62.20
2019-05-19T17:50:10.848Z,61.30
2019-05-19T17:52:39.740Z,62.40
2019-05-19T17:55:08.988Z,63.60
2019-05-19T17:57:38.546Z,64.50
2019-05-19T18:00:10.677Z,65.40
2019-05-19T18:02:39.415Z,66.00
2019-05-19T18:05:08.333Z,66.00
2019-05-19T18:07:37.231Z,66.40
2019-05-19T18:10:07.490Z,64.40
2019-05-19T18:12:36.278Z,66.00
2019-05-19T18:15:06.488Z,66.50
2019-05-19T18:17:35.342Z,66.50
2019-05-19T18:20:08.121Z,66.70
2019-05-19T18:22:37.003Z,67.10
2019-05-19T18:25:06.262Z,67.20
2019-05-19T18:27:35.108Z,67.70
2019-05-19T18:30:04.441Z,67.60
2019-05-19T18:32:33.205Z,67.80
2019-05-19T18:35:02.076Z,67.20
2019-05-19T18:37:31.127Z,68.00
2019-05-19T18:40:00.029Z,68.30
2019-05-19T18:42:28.835Z,68.50
2019-05-19T18:44:57.753Z,68.60
2019-05-19T18:47:26.515Z,68.70
2019-05-19T18:49:55.279Z,68.20
2019-05-19T18:52:24.113Z,68.70
2019-05-19T18:54:52.873Z,68.30
2019-05-19T18:57:21.730Z,68.70
2019-05-19T18:59:50.645Z,68.70
2019-05-19T19:02:19.423Z,66.90
2019-05-19T19:04:48.252Z,68.30
2019-05-19T19:07:17.133Z,68.40
2019-05-19T19:09:45.922Z,69.00
2019-05-19T19:12:16.990Z,69.00
2019-05-19T19:14:45.953Z,69.00
2019-05-19T19:17:14.797Z,68.70
2019-05-19T19:19:43.646Z,68.80
2019-05-19T19:22:12.561Z,69.20
2019-05-19T19:24:41.430Z,69.20
2019-05-19T19:27:10.277Z,69.50
2019-05-19T19:29:39.165Z,69.40
2019-05-19T19:32:08.037Z,69.50
2019-05-19T19:34:36.947Z,70.00
2019-05-19T19:37:05.879Z,70.30
2019-05-19T19:39:34.737Z,70.20
2019-05-19T19:42:03.596Z,70.70
2019-05-19T19:44:32.479Z,70.80
2019-05-19T19:47:01.311Z,71.30
2019-05-19T19:49:33.412Z,71.20
2019-05-19T19:52:02.399Z,71.50
2019-05-19T19:54:32.078Z,72.10
2019-05-19T19:57:00.940Z,72.50
2019-05-19T19:59:29.834Z,73.00
2019-05-19T20:01:58.679Z,73.30
2019-05-19T20:04:27.518Z,73.70
2019-05-19T20:06:56.427Z,74.30
2019-05-19T20:09:25.273Z,74.60
2019-05-19T20:11:54.137Z,74.80
2019-05-19T20:14:23.004Z,75.30
2019-05-19T20:16:51.828Z,76.20
2019-05-19T20:19:21.038Z,76.50
2019-05-19T20:21:49.940Z,76.60
2019-05-19T20:24:18.774Z,76.50
2019-05-19T20:26:47.608Z,77.10
2019-05-19T20:29:16.543Z,76.60
2019-05-19T20:31:45.378Z,77.50
2019-05-19T20:34:14.230Z,77.80
2019-05-19T20:36:43.077Z,77.90
2019-05-19T20:39:11.903Z,78.20
2019-05-19T20:41:40.668Z,78.50
2019-05-19T20:44:09.601Z,79.00
2019-05-19T20:46:38.357Z,79.20
2019-05-19T20:49:07.142Z,78.70
2019-05-19T20:51:35.956Z,79.80
2019-05-19T20:54:04.801Z,79.90
2019-05-19T20:56:33.644Z,80.10
2019-05-19T20:59:02.480Z,80.60
2019-05-19T21:01:31.258Z,80.60
2019-05-19T21:04:00.086Z,81.00
2019-05-19T21:06:28.907Z,81.30
2019-05-19T21:08:57.854Z,81.80
2019-05-19T21:11:26.734Z,82.10
2019-05-19T21:13:55.659Z,82.30
2019-05-19T21:16:24.472Z,82.40
2019-05-19T21:18:53.266Z,82.60
2019-05-19T21:21:22.153Z,82.50
2019-05-19T21:23:51.004Z,82.70
2019-05-19T21:26:19.850Z,83.20
2019-05-19T21:28:48.861Z,83.20
2019-05-19T21:31:17.729Z,83.50
2019-05-19T21:33:46.573Z,83.60
2019-05-19T21:36:15.464Z,83.70
2019-05-19T21:38:44.356Z,83.80
2019-05-19T21:41:13.218Z,84.10
2019-05-19T21:43:41.973Z,84.50
2019-05-19T21:46:10.840Z,84.50
2019-05-19T21:48:39.715Z,84.50
2019-05-19T21:51:08.864Z,84.60
2019-05-19T21:53:37.741Z,84.60
2019-05-19T21:56:06.544Z,85.50
2019-05-19T21:58:35.537Z,85.80
2019-05-19T22:01:04.482Z,86.00
2019-05-19T22:03:33.352Z,86.10
2019-05-19T22:06:02.251Z,86.40
2019-05-19T22:08:31.126Z,86.60
2019-05-19T22:11:00.114Z,86.60
2019-05-19T22:13:29.008Z,86.80
2019-05-19T22:16:11.703Z,86.50
2019-05-19T22:18:28.394Z,86.90
2019-05-19T22:20:57.325Z,87.20
2019-05-19T22:23:26.176Z,87.50
2019-05-19T22:25:55.039Z,87.50
2019-05-19T22:28:23.987Z,87.60
2019-05-19T22:30:52.859Z,87.50
2019-05-19T22:33:21.760Z,88.20
2019-05-19T22:35:50.611Z,88.30
2019-05-19T22:38:19.468Z,88.40
2019-05-19T22:40:48.321Z,89.20
2019-05-19T22:43:17.220Z,89.30
2019-05-19T22:45:46.126Z,89.40
2019-05-19T22:48:15.008Z,89.70
2019-05-19T22:50:43.882Z,90.00
2019-05-19T22:53:12.724Z,90.10
2019-05-19T22:55:41.635Z,90.10
2019-05-19T22:58:10.804Z,90.10
2019-05-19T23:00:39.801Z,90.10
2019-05-19T23:03:08.671Z,90.20
2019-05-19T23:05:37.671Z,90.30
2019-05-19T23:08:06.671Z,90.30
2019-05-19T23:10:35.769Z,90.20
2019-05-19T23:13:04.672Z,90.30
2019-05-19T23:15:33.564Z,90.40
2019-05-19T23:18:02.316Z,90.40
2019-05-19T23:20:31.219Z,90.30
2019-05-19T23:23:00.087Z,90.40
2019-05-19T23:25:28.977Z,90.40
2019-05-19T23:27:57.926Z,90.50
2019-05-19T23:30:26.822Z,90.70
2019-05-19T23:32:55.696Z,90.60
2019-05-19T23:35:24.539Z,90.70
2019-05-19T23:37:53.389Z,90.80
2019-05-19T23:40:24.747Z,91.00
2019-05-19T23:42:53.635Z,91.00
2019-05-19T23:45:22.494Z,91.00
2019-05-19T23:47:51.374Z,91.00
2019-05-19T23:50:20.291Z,91.10
2019-05-19T23:52:49.146Z,91.00
2019-05-19T23:55:18.082Z,91.20
2019-05-19T23:57:47.018Z,91.30
